Jerozolima, Izrael

14:28 IDT dnia 26-maj-2015 (GMT +0300)
IISRAELG2 | | Change Station
CLOSE
Current Station
Stacja PWS
Location: Givat Zeev, ISRAEL
n.p.m.: 2543 ft
Najbliższa stacja pogodowa

Wysokość 2543 ft 31.86 °N, 35.16 °E | Updated 5 minutes ago

Clear
85.9 ° F
Odczuwalna 83 ° F
Płn.
4.0
Wiatr zmienny Wiatr od ZdPnZd
Gusts 7.0 mph

Dziś
Wysoka -- | Niska -- ° F
--% Prawdop. opadów
Wczoraj
Wysoka -- | Niska -- ° F
Precip. -- cali
5:36 AM 7:36 PM
Pierwsza kwadra, 57% visible
Ciśnienie 29.89 cali
Widzialność -9999.0 mil
chmury
Odczucie gorąca 83 ° F
Punkt rosy 44 ° F
Wilgotność 23%
Opady deszczu 0.00 cali
grubość pokrywy śnieżnej Niedostępne.
UV z 12
Pyłki Niedostępne.
Jakość powietrza Niedostępne.
Flu Activity Niedostępne.
METAR LLBG 261120Z 30008KT CAVOK 32/16 Q1012 NOSIG

More Conditions Fewer Conditions

Ciśnienie 29.89 cali
Widzialność -9999.0 mil
chmury
Odczucie gorąca 83 ° F
Punkt rosy 44 ° F
Wilgotność 23%
Opady deszczu 0.00 cali
grubość pokrywy śnieżnej Niedostępne.
UV z 12
Pyłki Niedostępne.
Jakość powietrza Niedostępne.
Flu Activity Niedostępne.
METAR LLBG 261120Z 30008KT CAVOK 32/16 Q1012 NOSIG

More Conditions Fewer Conditions

10-Day Weather Forecast

Almanac

Astronomia

May. 26, 2015 Wschód Zachów
Aktualny czas
Zmierzch cywilny
Zmierzch żeglarski
świt/zmierzch astronomiczny
Księżyc
całkowite oświetlenie
Długość dnia
Tomorrow will be .
, % of the Moon is Illuminated

Dzisiejsze ekstrema

Country Highs Country Lows

Community

WunderPhotos

Upload Photos

1,824,304 zdjęcia zostały przesłane!

WunderBlogs® & News

Nearby

Jakość powietrza

  Jakość powietrza czynnik AQ Zanieczyszczenie
Not available.

Głębokość pokrywy śnieżnej

Station Depth n.p.m.

Aktywność sejsmiczna

Miejscowość Distance Mag. Time & Date
Minimum magnitude displayed is 2.5.

Temperatury wody na wybrzeżu

Miejsce Temperatura

Stations

Najbliższa stacja pogodowa

Lokalizacja stacji Temp. czynnik chłodzący wiatru Punkt rosy Wilgotność Wiatr Precip. Wysokość Uaktualniono Typ